sensor_id;sensor_type;location;lat;lon;timestamp;pressure;altitude;pressure_sealevel;temperature;humidity
31337;BME280;22846;42.654;23.314;2023-02-28T00:00:11;94930.88;;;24.08;49.14
31337;BME280;22846;42.654;23.314;2023-02-28T00:02:41;94938.75;;;24.06;49.00
31337;BME280;22846;42.654;23.314;2023-02-28T00:05:08;94940.25;;;24.07;49.44
31337;BME280;22846;42.654;23.314;2023-02-28T00:07:35;94918.31;;;23.95;49.34
31337;BME280;22846;42.654;23.314;2023-02-28T00:10:00;94939.50;;;24.07;49.11
31337;BME280;22846;42.654;23.314;2023-02-28T00:12:26;94933.34;;;24.03;49.26
31337;BME280;22846;42.654;23.314;2023-02-28T00:14:52;94924.75;;;24.04;49.32
31337;BME280;22846;42.654;23.314;2023-02-28T00:17:18;94941.88;;;24.05;49.07
31337;BME280;22846;42.654;23.314;2023-02-28T00:19:47;94938.88;;;23.99;49.20
31337;BME280;22846;42.654;23.314;2023-02-28T00:22:14;94943.16;;;24.00;49.04
31337;BME280;22846;42.654;23.314;2023-02-28T00:24:40;94954.41;;;24.02;49.29
31337;BME280;22846;42.654;23.314;2023-02-28T00:27:05;94947.41;;;24.01;49.31
31337;BME280;22846;42.654;23.314;2023-02-28T00:29:31;94946.75;;;23.97;49.20
31337;BME280;22846;42.654;23.314;2023-02-28T00:31:56;94945.47;;;24.02;48.90
31337;BME280;22846;42.654;23.314;2023-02-28T00:34:21;94950.16;;;24.01;49.46
31337;BME280;22846;42.654;23.314;2023-02-28T00:36:47;94941.97;;;24.01;49.02
31337;BME280;22846;42.654;23.314;2023-02-28T00:39:16;94947.41;;;24.01;49.25
31337;BME280;22846;42.654;23.314;2023-02-28T00:41:41;94940.94;;;23.95;49.43
31337;BME280;22846;42.654;23.314;2023-02-28T00:44:07;94949.41;;;24.01;49.08
31337;BME280;22846;42.654;23.314;2023-02-28T00:46:32;94936.94;;;24.00;48.93
31337;BME280;22846;42.654;23.314;2023-02-28T00:48:58;94928.06;;;23.96;49.19
31337;BME280;22846;42.654;23.314;2023-02-28T00:51:23;94937.34;;;23.98;49.36
31337;BME280;22846;42.654;23.314;2023-02-28T00:53:49;94944.44;;;23.96;49.31
31337;BME280;22846;42.654;23.314;2023-02-28T00:56:14;94934.22;;;24.00;49.18
31337;BME280;22846;42.654;23.314;2023-02-28T00:58:40;94940.84;;;23.99;49.15
31337;BME280;22846;42.654;23.314;2023-02-28T01:01:06;94949.06;;;23.99;49.43
31337;BME280;22846;42.654;23.314;2023-02-28T01:03:31;94943.59;;;23.99;49.08
31337;BME280;22846;42.654;23.314;2023-02-28T01:05:56;94944.03;;;23.97;49.31
31337;BME280;22846;42.654;23.314;2023-02-28T01:08:22;94942.13;;;23.94;49.24
31337;BME280;22846;42.654;23.314;2023-02-28T01:10:48;94937.88;;;23.93;49.23
31337;BME280;22846;42.654;23.314;2023-02-28T01:13:14;94944.03;;;23.97;49.48
31337;BME280;22846;42.654;23.314;2023-02-28T01:15:50;94935.56;;;23.92;49.06
31337;BME280;22846;42.654;23.314;2023-02-28T01:18:17;94940.50;;;23.97;49.36
31337;BME280;22846;42.654;23.314;2023-02-28T01:20:42;94932.84;;;23.92;49.35
31337;BME280;22846;42.654;23.314;2023-02-28T01:23:08;94938.22;;;23.95;49.51
31337;BME280;22846;42.654;23.314;2023-02-28T01:25:37;94933.59;;;23.92;49.16
31337;BME280;22846;42.654;23.314;2023-02-28T01:28:03;94935.13;;;23.93;49.62
31337;BME280;22846;42.654;23.314;2023-02-28T01:30:28;94935.13;;;23.93;49.56
31337;BME280;22846;42.654;23.314;2023-02-28T01:32:54;94928.94;;;23.93;49.35
31337;BME280;22846;42.654;23.314;2023-02-28T01:35:20;94936.41;;;23.89;49.51
31337;BME280;22846;42.654;23.314;2023-02-28T01:37:45;94931.22;;;23.94;49.60
31337;BME280;22846;42.654;23.314;2023-02-28T01:40:11;94921.75;;;23.83;49.18
31337;BME280;22846;42.654;23.314;2023-02-28T01:42:37;94932.84;;;23.92;49.48
31337;BME280;22846;42.654;23.314;2023-02-28T01:45:27;94943.75;;;23.92;49.16
31337;BME280;22846;42.654;23.314;2023-02-28T01:48:02;94945.72;;;23.92;49.37
31337;BME280;22846;42.654;23.314;2023-02-28T01:50:32;94952.34;;;23.91;49.58
31337;BME280;22846;42.654;23.314;2023-02-28T01:53:03;94955.09;;;23.91;49.55
31337;BME280;22846;42.654;23.314;2023-02-28T01:55:30;94942.63;;;23.90;49.64
31337;BME280;22846;42.654;23.314;2023-02-28T01:57:58;94938.41;;;23.89;49.56
31337;BME280;22846;42.654;23.314;2023-02-28T02:00:26;94948.09;;;23.90;49.19
31337;BME280;22846;42.654;23.314;2023-02-28T02:03:11;94947.00;;;23.87;49.25
31337;BME280;22846;42.654;23.314;2023-02-28T02:05:39;94945.38;;;23.90;49.18
31337;BME280;22846;42.654;23.314;2023-02-28T02:08:11;94947.41;;;23.86;49.33
31337;BME280;22846;42.654;23.314;2023-02-28T02:10:48;94946.59;;;23.89;49.46
31337;BME280;22846;42.654;23.314;2023-02-28T02:16:17;94940.78;;;23.87;49.67
31337;BME280;22846;42.654;23.314;2023-02-28T02:18:53;94940.00;;;23.86;49.65
31337;BME280;22846;42.654;23.314;2023-02-28T02:38:53;94934.97;;;23.85;49.53
31337;BME280;22846;42.654;23.314;2023-02-28T02:41:36;94935.13;;;23.78;49.55
31337;BME280;22846;42.654;23.314;2023-02-28T02:44:29;94939.66;;;23.84;49.32
31337;BME280;22846;42.654;23.314;2023-02-28T02:47:03;94944.78;;;23.82;49.42
31337;BME280;22846;42.654;23.314;2023-02-28T02:49:32;94946.72;;;23.82;49.63
31337;BME280;22846;42.654;23.314;2023-02-28T02:52:02;94953.72;;;23.83;49.71
31337;BME280;22846;42.654;23.314;2023-02-28T02:54:32;94922.47;;;23.68;49.74
31337;BME280;22846;42.654;23.314;2023-02-28T02:57:03;94945.97;;;23.81;49.54
31337;BME280;22846;42.654;23.314;2023-02-28T02:59:30;94950.66;;;23.81;49.48
31337;BME280;22846;42.654;23.314;2023-02-28T03:02:00;94958.44;;;23.82;49.75
31337;BME280;22846;42.654;23.314;2023-02-28T03:04:30;94957.41;;;23.76;49.45
31337;BME280;22846;42.654;23.314;2023-02-28T03:06:57;94968.56;;;23.82;49.70
31337;BME280;22846;42.654;23.314;2023-02-28T03:09:24;94970.53;;;23.81;49.76
31337;BME280;22846;42.654;23.314;2023-02-28T03:11:52;94969.00;;;23.80;49.39
31337;BME280;22846;42.654;23.314;2023-02-28T03:14:25;94986.16;;;23.81;49.82
31337;BME280;22846;42.654;23.314;2023-02-28T03:17:20;94984.19;;;23.81;49.84
31337;BME280;22846;42.654;23.314;2023-02-28T03:21:00;94982.63;;;23.80;49.61
31337;BME280;22846;42.654;23.314;2023-02-28T03:23:15;94983.44;;;23.81;49.68
31337;BME280;22846;42.654;23.314;2023-02-28T03:26:11;94990.06;;;23.80;49.82
31337;BME280;22846;42.654;23.314;2023-02-28T03:28:53;94988.94;;;23.77;50.04
31337;BME280;22846;42.654;23.314;2023-02-28T03:31:36;94990.91;;;23.77;49.66
31337;BME280;22846;42.654;23.314;2023-02-28T03:34:31;95005.31;;;23.77;49.53
31337;BME280;22846;42.654;23.314;2023-02-28T03:37:10;95004.56;;;23.77;49.93
31337;BME280;22846;42.654;23.314;2023-02-28T03:39:41;94999.09;;;23.77;49.51
31337;BME280;22846;42.654;23.314;2023-02-28T03:42:18;95001.81;;;23.77;49.81
31337;BME280;22846;42.654;23.314;2023-02-28T03:44:48;94992.09;;;23.76;49.82
31337;BME280;22846;42.654;23.314;2023-02-28T03:50:41;94999.84;;;23.77;49.79
31337;BME280;22846;42.654;23.314;2023-02-28T03:53:13;95004.97;;;23.75;49.48
31337;BME280;22846;42.654;23.314;2023-02-28T03:55:46;95006.94;;;23.75;49.56
31337;BME280;22846;42.654;23.314;2023-02-28T03:58:27;95011.19;;;23.76;49.57
31337;BME280;22846;42.654;23.314;2023-02-28T04:01:03;95011.19;;;23.76;49.62
31337;BME280;22846;42.654;23.314;2023-02-28T04:03:35;95007.72;;;23.75;50.02
31337;BME280;22846;42.654;23.314;2023-02-28T04:06:01;95011.19;;;23.76;49.59
31337;BME280;22846;42.654;23.314;2023-02-28T04:08:26;95010.94;;;23.86;49.88
31337;BME280;22846;42.654;23.314;2023-02-28T04:11:20;95003.03;;;24.07;49.22
31337;BME280;22846;42.654;23.314;2023-02-28T04:13:46;94993.50;;;24.31;48.47
31337;BME280;22846;42.654;23.314;2023-02-28T04:16:12;95000.59;;;24.61;48.28
31337;BME280;22846;42.654;23.314;2023-02-28T04:18:38;95001.66;;;24.79;47.66
31337;BME280;22846;42.654;23.314;2023-02-28T04:21:05;94997.88;;;24.89;47.44
31337;BME280;22846;42.654;23.314;2023-02-28T04:23:30;95005.28;;;25.04;47.21
31337;BME280;22846;42.654;23.314;2023-02-28T04:25:56;95002.63;;;25.17;46.88
31337;BME280;22846;42.654;23.314;2023-02-28T04:28:21;95004.31;;;25.27;46.54
31337;BME280;22846;42.654;23.314;2023-02-28T04:30:47;94999.72;;;25.36;46.48
31337;BME280;22846;42.654;23.314;2023-02-28T04:33:12;94990.97;;;25.41;46.13
31337;BME280;22846;42.654;23.314;2023-02-28T04:35:38;95001.63;;;25.52;46.48
31337;BME280;22846;42.654;23.314;2023-02-28T04:38:03;95010.47;;;25.56;46.17
31337;BME280;22846;42.654;23.314;2023-02-28T04:40:28;95006.78;;;25.62;45.93
31337;BME280;22846;42.654;23.314;2023-02-28T04:42:54;95002.41;;;25.64;45.87
31337;BME280;22846;42.654;23.314;2023-02-28T04:45:19;95018.50;;;25.75;46.05
31337;BME280;22846;42.654;23.314;2023-02-28T04:47:45;95021.94;;;25.79;45.89
31337;BME280;22846;42.654;23.314;2023-02-28T04:50:10;95021.81;;;25.82;45.68
31337;BME280;22846;42.654;23.314;2023-02-28T04:52:35;95025.13;;;25.90;45.62
31337;BME280;22846;42.654;23.314;2023-02-28T04:55:01;95020.84;;;25.89;45.77
31337;BME280;22846;42.654;23.314;2023-02-28T04:57:26;95032.69;;;25.98;45.67
31337;BME280;22846;42.654;23.314;2023-02-28T04:59:52;95034.09;;;26.03;45.53
31337;BME280;22846;42.654;23.314;2023-02-28T05:02:17;95035.53;;;26.07;45.19
31337;BME280;22846;42.654;23.314;2023-02-28T05:04:43;95035.88;;;26.09;45.27
31337;BME280;22846;42.654;23.314;2023-02-28T05:07:08;95033.81;;;26.13;45.39
31337;BME280;22846;42.654;23.314;2023-02-28T05:09:34;95036.97;;;26.12;45.18
31337;BME280;22846;42.654;23.314;2023-02-28T05:12:00;95036.22;;;26.11;45.13
31337;BME280;22846;42.654;23.314;2023-02-28T05:14:25;95039.47;;;26.06;45.37
31337;BME280;22846;42.654;23.314;2023-02-28T05:16:51;95028.22;;;26.04;45.26
31337;BME280;22846;42.654;23.314;2023-02-28T05:19:16;95009.47;;;25.90;45.36
31337;BME280;22846;42.654;23.314;2023-02-28T05:21:50;95037.63;;;26.03;45.68
31337;BME280;22846;42.654;23.314;2023-02-28T05:24:16;95034.22;;;25.99;45.28
31337;BME280;22846;42.654;23.314;2023-02-28T05:26:48;95046.72;;;26.00;45.38
31337;BME280;22846;42.654;23.314;2023-02-28T05:29:14;95040.91;;;25.98;45.53
31337;BME280;22846;42.654;23.314;2023-02-28T05:31:39;95050.75;;;25.96;45.58
31337;BME280;22846;42.654;23.314;2023-02-28T05:34:05;95056.69;;;25.94;45.38
31337;BME280;22846;42.654;23.314;2023-02-28T05:36:31;95055.78;;;25.97;45.75
31337;BME280;22846;42.654;23.314;2023-02-28T05:38:56;95050.41;;;25.94;45.24
31337;BME280;22846;42.654;23.314;2023-02-28T05:41:22;95051.63;;;25.93;45.53
31337;BME280;22846;42.654;23.314;2023-02-28T05:43:47;95067.19;;;25.96;45.66
31337;BME280;22846;42.654;23.314;2023-02-28T05:46:13;95058.84;;;25.87;45.77
31337;BME280;22846;42.654;23.314;2023-02-28T05:48:40;95064.00;;;25.85;45.83
31337;BME280;22846;42.654;23.314;2023-02-28T05:51:06;95063.88;;;25.76;45.80
31337;BME280;22846;42.654;23.314;2023-02-28T05:53:33;95070.41;;;25.66;45.88
31337;BME280;22846;42.654;23.314;2023-02-28T05:55:58;95075.31;;;25.59;46.16
31337;BME280;22846;42.654;23.314;2023-02-28T05:58:24;95068.91;;;25.49;46.42
31337;BME280;22846;42.654;23.314;2023-02-28T06:00:57;95077.75;;;25.41;46.43
31337;BME280;22846;42.654;23.314;2023-02-28T06:03:23;95075.22;;;25.34;46.57
31337;BME280;22846;42.654;23.314;2023-02-28T06:05:48;95073.88;;;25.26;46.90
31337;BME280;22846;42.654;23.314;2023-02-28T06:08:14;95067.06;;;25.18;47.19
31337;BME280;22846;42.654;23.314;2023-02-28T06:10:40;95064.84;;;25.13;47.26
31337;BME280;22846;42.654;23.314;2023-02-28T06:13:05;95070.81;;;25.08;47.21
31337;BME280;22846;42.654;23.314;2023-02-28T06:15:31;95064.00;;;25.00;47.14
31337;BME280;22846;42.654;23.314;2023-02-28T06:17:57;95073.06;;;24.97;47.57
31337;BME280;22846;42.654;23.314;2023-02-28T06:20:24;95068.13;;;24.92;47.45
31337;BME280;22846;42.654;23.314;2023-02-28T06:22:51;95069.41;;;24.87;47.57
31337;BME280;22846;42.654;23.314;2023-02-28T06:25:17;95071.78;;;24.85;47.86
31337;BME280;22846;42.654;23.314;2023-02-28T06:27:43;95070.34;;;24.81;47.56
31337;BME280;22846;42.654;23.314;2023-02-28T06:30:10;95068.13;;;24.76;47.49
31337;BME280;22846;42.654;23.314;2023-02-28T06:32:36;95076.00;;;24.74;47.52
31337;BME280;22846;42.654;23.314;2023-02-28T06:35:01;95076.09;;;24.71;48.17
31337;BME280;22846;42.654;23.314;2023-02-28T06:37:27;95087.09;;;24.67;48.09
31337;BME280;22846;42.654;23.314;2023-02-28T06:39:54;95083.34;;;24.61;48.31
31337;BME280;22846;42.654;23.314;2023-02-28T06:42:22;95091.13;;;24.63;48.50
31337;BME280;22846;42.654;23.314;2023-02-28T06:44:50;95095.47;;;24.60;48.08
31337;BME280;22846;42.654;23.314;2023-02-28T06:47:16;95092.72;;;24.60;48.63
31337;BME280;22846;42.654;23.314;2023-02-28T06:49:41;95093.16;;;24.59;48.48
31337;BME280;22846;42.654;23.314;2023-02-28T06:52:06;95093.59;;;24.57;48.30
31337;BME280;22846;42.654;23.314;2023-02-28T06:54:32;95085.56;;;24.50;48.30
31337;BME280;22846;42.654;23.314;2023-02-28T06:56:58;95097.94;;;24.55;48.32
31337;BME280;22846;42.654;23.314;2023-02-28T06:59:23;95084.88;;;24.46;48.72
31337;BME280;22846;42.654;23.314;2023-02-28T07:01:49;95093.75;;;24.50;48.63
31337;BME280;22846;42.654;23.314;2023-02-28T07:04:14;95096.16;;;24.48;48.30
31337;BME280;22846;42.654;23.314;2023-02-28T07:06:40;95101.63;;;24.48;48.60
31337;BME280;22846;42.654;23.314;2023-02-28T07:09:05;95095.81;;;24.46;48.43
31337;BME280;22846;42.654;23.314;2023-02-28T07:11:31;95090.78;;;24.45;48.94
31337;BME280;22846;42.654;23.314;2023-02-28T07:13:57;95100.16;;;24.44;48.48
31337;BME280;22846;42.654;23.314;2023-02-28T07:16:23;95090.81;;;24.41;48.98
31337;BME280;22846;42.654;23.314;2023-02-28T07:18:51;95091.25;;;24.40;48.65
31337;BME280;22846;42.654;23.314;2023-02-28T07:21:17;95089.69;;;24.39;48.54
31337;BME280;22846;42.654;23.314;2023-02-28T07:23:42;95092.13;;;24.37;49.01
31337;BME280;22846;42.654;23.314;2023-02-28T07:26:12;95097.22;;;24.35;49.04
31337;BME280;22846;42.654;23.314;2023-02-28T07:28:40;95083.47;;;24.22;48.98
31337;BME280;22846;42.654;23.314;2023-02-28T07:31:08;95099.16;;;24.34;48.89
31337;BME280;22846;42.654;23.314;2023-02-28T07:33:34;95095.69;;;24.34;48.77
31337;BME280;22846;42.654;23.314;2023-02-28T07:36:05;95094.56;;;24.31;48.99
31337;BME280;22846;42.654;23.314;2023-02-28T07:38:34;95093.03;;;24.30;48.88
31337;BME280;22846;42.654;23.314;2023-02-28T07:40:59;95093.44;;;24.29;49.02
31337;BME280;22846;42.654;23.314;2023-02-28T07:43:24;95105.16;;;24.29;48.80
31337;BME280;22846;42.654;23.314;2023-02-28T07:45:50;95106.34;;;24.28;48.82
31337;BME280;22846;42.654;23.314;2023-02-28T07:48:15;95100.13;;;24.28;49.02
31337;BME280;22846;42.654;23.314;2023-02-28T07:50:41;95084.75;;;24.18;48.75
31337;BME280;22846;42.654;23.314;2023-02-28T07:53:06;95099.00;;;24.25;49.20
31337;BME280;22846;42.654;23.314;2023-02-28T07:55:32;95095.94;;;24.23;49.10
31337;BME280;22846;42.654;23.314;2023-02-28T07:57:57;95093.97;;;24.24;49.08
31337;BME280;22846;42.654;23.314;2023-02-28T08:00:23;95080.47;;;24.17;49.14
31337;BME280;22846;42.654;23.314;2023-02-28T08:02:49;95088.94;;;24.22;49.23
31337;BME280;22846;42.654;23.314;2023-02-28T08:05:14;95095.59;;;24.21;49.25
31337;BME280;22846;42.654;23.314;2023-02-28T08:07:40;95089.78;;;24.19;49.07
31337;BME280;22846;42.654;23.314;2023-02-28T08:10:06;95093.69;;;24.18;49.05
31337;BME280;22846;42.654;23.314;2023-02-28T08:12:31;95085.16;;;24.16;48.72
31337;BME280;22846;42.654;23.314;2023-02-28T08:14:57;95096.41;;;24.18;49.23
31337;BME280;22846;42.654;23.314;2023-02-28T08:17:23;95090.28;;;24.14;49.19
31337;BME280;22846;42.654;23.314;2023-02-28T08:19:48;95091.38;;;24.17;49.34
31337;BME280;22846;42.654;23.314;2023-02-28T08:22:14;95089.06;;;24.15;49.28
31337;BME280;22846;42.654;23.314;2023-02-28T08:24:41;95101.53;;;24.16;48.97
31337;BME280;22846;42.654;23.314;2023-02-28T08:27:07;95092.31;;;24.10;48.78
31337;BME280;22846;42.654;23.314;2023-02-28T08:29:32;95089.94;;;24.12;48.98
31337;BME280;22846;42.654;23.314;2023-02-28T08:31:58;95100.06;;;24.12;49.28
31337;BME280;22846;42.654;23.314;2023-02-28T08:34:24;95096.94;;;24.13;49.28
31337;BME280;22846;42.654;23.314;2023-02-28T08:36:49;95096.59;;;24.11;49.12
31337;BME280;22846;42.654;23.314;2023-02-28T08:39:15;95105.53;;;24.12;48.98
31337;BME280;22846;42.654;23.314;2023-02-28T08:41:42;95104.00;;;24.11;48.94
31337;BME280;22846;42.654;23.314;2023-02-28T08:44:07;95101.34;;;24.07;49.18
31337;BME280;22846;42.654;23.314;2023-02-28T08:46:33;95103.66;;;24.09;49.01
31337;BME280;22846;42.654;23.314;2023-02-28T08:48:58;95105.63;;;24.08;49.36
31337;BME280;22846;42.654;23.314;2023-02-28T08:51:26;95090.19;;;24.02;49.37
31337;BME280;22846;42.654;23.314;2023-02-28T08:53:57;95106.81;;;24.07;49.01
31337;BME280;22846;42.654;23.314;2023-02-28T08:56:24;95090.66;;;23.97;48.89
31337;BME280;22846;42.654;23.314;2023-02-28T08:58:50;95110.31;;;24.08;48.99
31337;BME280;22846;42.654;23.314;2023-02-28T09:01:22;95101.84;;;24.02;49.29
31337;BME280;22846;42.654;23.314;2023-02-28T09:03:49;95108.03;;;24.06;49.03
31337;BME280;22846;42.654;23.314;2023-02-28T09:06:16;95107.22;;;24.06;49.33
31337;BME280;22846;42.654;23.314;2023-02-28T09:08:42;95108.03;;;24.06;49.19
31337;BME280;22846;42.654;23.314;2023-02-28T09:11:08;95093.31;;;24.00;49.41
31337;BME280;22846;42.654;23.314;2023-02-28T09:13:34;95104.94;;;24.04;49.10
31337;BME280;22846;42.654;23.314;2023-02-28T09:16:02;95105.69;;;24.05;49.42
31337;BME280;22846;42.654;23.314;2023-02-28T09:18:28;95103.75;;;24.05;49.37
31337;BME280;22846;42.654;23.314;2023-02-28T09:20:54;95099.47;;;24.04;49.41
31337;BME280;22846;42.654;23.314;2023-02-28T09:23:20;95080.25;;;23.92;49.38
31337;BME280;22846;42.654;23.314;2023-02-28T09:25:48;95088.75;;;23.94;49.35
31337;BME280;22846;42.654;23.314;2023-02-28T09:28:14;95097.94;;;24.03;49.30
31337;BME280;22846;42.654;23.314;2023-02-28T09:30:47;95097.16;;;24.03;48.99
31337;BME280;22846;42.654;23.314;2023-02-28T09:33:14;95092.47;;;24.03;49.04
31337;BME280;22846;42.654;23.314;2023-02-28T09:35:39;95099.88;;;24.03;49.05
31337;BME280;22846;42.654;23.314;2023-02-28T09:38:05;95105.34;;;24.03;49.38
31337;BME280;22846;42.654;23.314;2023-02-28T09:40:40;95096.81;;;24.01;49.40
31337;BME280;22846;42.654;23.314;2023-02-28T09:43:11;95090.94;;;24.02;49.42
31337;BME280;22846;42.654;23.314;2023-02-28T09:45:40;95088.97;;;24.03;48.98
31337;BME280;22846;42.654;23.314;2023-02-28T09:48:12;95090.94;;;24.02;48.99
31337;BME280;22846;42.654;23.314;2023-02-28T09:50:48;95080.78;;;24.03;49.05
31337;BME280;22846;42.654;23.314;2023-02-28T09:53:29;95076.25;;;23.96;49.21
31337;BME280;22846;42.654;23.314;2023-02-28T09:56:00;95081.91;;;24.05;49.22
31337;BME280;22846;42.654;23.314;2023-02-28T09:58:49;95087.44;;;24.02;49.42
31337;BME280;22846;42.654;23.314;2023-02-28T10:06:35;95066.94;;;23.94;49.18
31337;BME280;22846;42.654;23.314;2023-02-28T10:09:08;95071.53;;;23.97;49.28
31337;BME280;22846;42.654;23.314;2023-02-28T10:11:37;95066.44;;;23.99;49.14
31337;BME280;22846;42.654;23.314;2023-02-28T10:14:05;95069.53;;;24.01;49.07
31337;BME280;22846;42.654;23.314;2023-02-28T10:16:48;95069.16;;;23.99;48.96
31337;BME280;22846;42.654;23.314;2023-02-28T10:19:20;95063.63;;;24.02;49.20
31337;BME280;22846;42.654;23.314;2023-02-28T10:21:57;95060.56;;;24.00;49.05
31337;BME280;22846;42.654;23.314;2023-02-28T10:24:54;95049.03;;;23.93;48.91
31337;BME280;22846;42.654;23.314;2023-02-28T10:27:24;95049.63;;;24.00;49.38
31337;BME280;22846;42.654;23.314;2023-02-28T10:29:52;95057.81;;;24.00;49.33
31337;BME280;22846;42.654;23.314;2023-02-28T10:32:21;95048.88;;;24.00;49.26
31337;BME280;22846;42.654;23.314;2023-02-28T10:37:32;95034.78;;;24.01;48.88
31337;BME280;22846;42.654;23.314;2023-02-28T10:40:04;95029.84;;;23.96;47.99
31337;BME280;22846;42.654;23.314;2023-02-28T10:42:31;95021.56;;;24.00;47.28
31337;BME280;22846;42.654;23.314;2023-02-28T10:45:16;95010.72;;;23.96;46.82
31337;BME280;22846;42.654;23.314;2023-02-28T10:48:23;95011.75;;;24.02;47.54
31337;BME280;22846;42.654;23.314;2023-02-28T10:50:51;94989.56;;;23.85;47.46
31337;BME280;22846;42.654;23.314;2023-02-28T10:56:03;95007.75;;;24.07;47.25
31337;BME280;22846;42.654;23.314;2023-02-28T11:01:18;94999.66;;;24.03;42.11
31337;BME280;22846;42.654;23.314;2023-02-28T11:03:44;94997.66;;;23.88;40.61
31337;BME280;22846;42.654;23.314;2023-02-28T11:08:52;94977.97;;;23.61;45.03
31337;BME280;22846;42.654;23.314;2023-02-28T11:11:18;94988.72;;;23.68;45.49
31337;BME280;22846;42.654;23.314;2023-02-28T11:13:46;94985.59;;;23.70;45.86
31337;BME280;22846;42.654;23.314;2023-02-28T11:16:14;94978.59;;;23.69;45.99
31337;BME280;22846;42.654;23.314;2023-02-28T11:21:09;94980.34;;;23.79;46.57
31337;BME280;22846;42.654;23.314;2023-02-28T11:23:40;94972.16;;;23.79;46.32
31337;BME280;22846;42.654;23.314;2023-02-28T11:26:07;94978.63;;;23.85;46.28
31337;BME280;22846;42.654;23.314;2023-02-28T11:28:38;94973.53;;;23.87;46.40
31337;BME280;22846;42.654;23.314;2023-02-28T11:31:15;94973.09;;;23.88;46.25
31337;BME280;22846;42.654;23.314;2023-02-28T11:33:50;94980.09;;;23.89;46.63
31337;BME280;22846;42.654;23.314;2023-02-28T11:38:43;94962.53;;;23.90;46.05
31337;BME280;22846;42.654;23.314;2023-02-28T11:49:37;94959.63;;;23.97;46.62
31337;BME280;22846;42.654;23.314;2023-02-28T12:00:50;94959.03;;;24.05;46.10
31337;BME280;22846;42.654;23.314;2023-02-28T12:09:30;94952.72;;;24.08;46.21
31337;BME280;22846;42.654;23.314;2023-02-28T12:11:52;94954.25;;;24.09;46.00
31337;BME280;22846;42.654;23.314;2023-02-28T12:14:47;94953.81;;;24.11;46.24
31337;BME280;22846;42.654;23.314;2023-02-28T12:17:42;94944.88;;;24.10;45.97
31337;BME280;22846;42.654;23.314;2023-02-28T12:20:21;94951.06;;;24.11;46.36
31337;BME280;22846;42.654;23.314;2023-02-28T12:28:26;94953.41;;;24.12;45.91
31337;BME280;22846;42.654;23.314;2023-02-28T12:31:00;94947.16;;;24.12;46.20
31337;BME280;22846;42.654;23.314;2023-02-28T12:33:35;94948.69;;;24.13;45.83
31337;BME280;22846;42.654;23.314;2023-02-28T12:36:07;94949.88;;;24.12;46.20
31337;BME280;22846;42.654;23.314;2023-02-28T12:39:07;94947.16;;;24.12;46.01
31337;BME280;22846;42.654;23.314;2023-02-28T12:41:37;94952.63;;;24.12;46.25
31337;BME280;22846;42.654;23.314;2023-02-28T12:44:12;94942.47;;;24.12;45.83
31337;BME280;22846;42.654;23.314;2023-02-28T12:46:45;94946.41;;;24.11;45.97
31337;BME280;22846;42.654;23.314;2023-02-28T12:49:21;94935.56;;;24.08;45.77
31337;BME280;22846;42.654;23.314;2023-02-28T12:51:50;94956.13;;;24.12;45.75
31337;BME280;22846;42.654;23.314;2023-02-28T12:54:24;94930.88;;;24.08;45.93
31337;BME280;22846;42.654;23.314;2023-02-28T12:59:51;94942.88;;;24.11;45.93
31337;BME280;22846;42.654;23.314;2023-02-28T13:10:49;94941.69;;;24.12;45.48
31337;BME280;22846;42.654;23.314;2023-02-28T13:13:27;94945.97;;;24.13;45.61
31337;BME280;22846;42.654;23.314;2023-02-28T13:16:05;94940.94;;;24.11;46.08
31337;BME280;22846;42.654;23.314;2023-02-28T13:21:03;94937.09;;;24.09;43.64
31337;BME280;22846;42.654;23.314;2023-02-28T13:26:22;94923.63;;;24.02;44.79
31337;BME280;22846;42.654;23.314;2023-02-28T13:29:00;94933.69;;;24.05;45.14
31337;BME280;22846;42.654;23.314;2023-02-28T13:31:27;94927.56;;;24.01;45.08
31337;BME280;22846;42.654;23.314;2023-02-28T13:36:31;94924.81;;;24.01;45.48
31337;BME280;22846;42.654;23.314;2023-02-28T13:39:01;94927.81;;;24.06;45.58
31337;BME280;22846;42.654;23.314;2023-02-28T13:44:18;94926.28;;;24.05;45.44
31337;BME280;22846;42.654;23.314;2023-02-28T13:57:48;94915.84;;;24.00;46.17
31337;BME280;22846;42.654;23.314;2023-02-28T14:05:39;94909.91;;;24.05;46.24
31337;BME280;22846;42.654;23.314;2023-02-28T14:08:17;94909.47;;;24.07;46.18
31337;BME280;22846;42.654;23.314;2023-02-28T14:10:48;94918.75;;;24.09;46.59
31337;BME280;22846;42.654;23.314;2023-02-28T14:15:59;94908.69;;;24.06;46.61
31337;BME280;22846;42.654;23.314;2023-02-28T14:18:34;94908.94;;;24.12;46.61
31337;BME280;22846;42.654;23.314;2023-02-28T14:23:52;94909.19;;;24.17;46.79
31337;BME280;22846;42.654;23.314;2023-02-28T14:35:19;94916.78;;;24.26;46.51
31337;BME280;22846;42.654;23.314;2023-02-28T14:37:46;94907.50;;;24.23;46.92
31337;BME280;22846;42.654;23.314;2023-02-28T14:40:21;94910.53;;;24.25;46.96
31337;BME280;22846;42.654;23.314;2023-02-28T14:42:58;94914.81;;;24.26;46.57
31337;BME280;22846;42.654;23.314;2023-02-28T14:45:27;94916.34;;;24.27;46.52
31337;BME280;22846;42.654;23.314;2023-02-28T14:47:54;94913.63;;;24.27;46.51
31337;BME280;22846;42.654;23.314;2023-02-28T14:50:26;94917.53;;;24.26;46.54
31337;BME280;22846;42.654;23.314;2023-02-28T14:52:53;94916.69;;;24.29;46.94
31337;BME280;22846;42.654;23.314;2023-02-28T14:55:36;94910.44;;;24.29;46.63
31337;BME280;22846;42.654;23.314;2023-02-28T14:58:06;94920.63;;;24.28;46.55
31337;BME280;22846;42.654;23.314;2023-02-28T15:00:34;94922.16;;;24.29;46.50
31337;BME280;22846;42.654;23.314;2023-02-28T15:03:31;94913.16;;;24.29;46.55
31337;BME280;22846;42.654;23.314;2023-02-28T15:06:00;94918.72;;;24.25;46.58
31337;BME280;22846;42.654;23.314;2023-02-28T15:08:27;94916.44;;;24.24;46.30